Thassos III — SVA2112 — position and weather

sailwx.info

Track history (hours):
 
Tides and Currents Weather Stations Pressure Air Temp Water Temp Dewpoint Dewpoint Depression Visibility Wind Speed Wind Dir Waves Ship Positions

Thassos III

Last reported at 2018-Jun-24 19:48 UTC. Time now 2018-Jun-24 22:07 UTC.
Position N 40°47' E 024°42'.

Length 100 m; draft 2.1 m.

Type: Passenger vessel. MMSI: 239371500.

Date/timePositionNaut miles runAvg speedWind from/ knotsBaromVisibWave heightAir tempDewpointWater temp
2018-Jun-24 19:48N 40°47' E 024°42'2 6.3
2018-Jun-24 19:30N 40°49' E 024°42'3 5.7
2018-Jun-24 19:00N 40°51' E 024°42'0 0.1
2018-Jun-24 18:30N 40°51' E 024°42'3 5.2
2018-Jun-24 18:00N 40°49' E 024°41'2 4.4
2018-Jun-24 17:30N 40°47' E 024°42'1 2.8
2018-Jun-24 17:00N 40°48' E 024°41'3 6.8
2018-Jun-24 16:30N 40°51' E 024°42'0 0.0
2018-Jun-24 16:00N 40°51' E 024°42'2 4.3
2018-Jun-24 15:30N 40°49' E 024°41'3 5.3
2018-Jun-24 15:00N 40°47' E 024°42'0 0.0
2018-Jun-24 14:30N 40°47' E 024°42'1 2.0
2018-Jun-24 14:00N 40°48' E 024°42'4 7.5
2018-Jun-24 13:30N 40°51' E 024°42'0 0.1
2018-Jun-24 13:00N 40°51' E 024°42'2 4.2
2018-Jun-24 12:30N 40°49' E 024°42'2 3.9
2018-Jun-24 12:00N 40°47' E 024°41'5 9.2
2018-Jun-24 11:30N 40°49' E 024°35'4 8.9
2018-Jun-24 11:00N 40°49' E 024°29'4 9.0
2018-Jun-24 10:30N 40°50' E 024°24'4 7.4
2018-Jun-24 10:00N 40°51' E 024°19'0 0.1
2018-Jun-24 09:30N 40°51' E 024°19'0 0.0
2018-Jun-23 12:55N 40°51' E 024°19'3 8.0
2018-Jun-23 12:30N 40°50' E 024°23'510.5
2018-Jun-23 12:00N 40°49' E 024°30'510.6
2018-Jun-23 11:30N 40°48' E 024°37'4 8.7
2018-Jun-23 11:00N 40°47' E 024°42'1 2.1
2018-Jun-23 10:29N 40°48' E 024°42'4 7.6
2018-Jun-23 10:00N 40°51' E 024°42'0 0.0
2018-Jun-23 09:30N 40°51' E 024°42'2 3.9
2018-Jun-23 09:00N 40°50' E 024°41'3 5.8
2018-Jun-23 08:30N 40°47' E 024°42'0 0.0
2018-Jun-23 08:00N 40°47' E 024°42'0 0.0
2018-Jun-23 07:30N 40°47' E 024°42'0 0.9
2018-Jun-23 07:00N 40°47' E 024°42'4 8.4
2018-Jun-23 06:30N 40°51' E 024°42'0 0.0
2018-Jun-23 06:00N 40°51' E 024°42'2 4.3
2018-Jun-23 05:30N 40°49' E 024°41'3 5.4
2018-Jun-23 05:00N 40°47' E 024°42'0 0.0
2018-Jun-23 04:30N 40°47' E 024°42'0 0.9
2018-Jun-23 04:00N 40°47' E 024°42'4 8.5
2018-Jun-23 03:30N 40°51' E 024°42'0 0.0
2018-Jun-22 20:38N 40°51' E 024°42'1 7.4
2018-Jun-22 20:30N 40°52' E 024°41'5 9.8
2018-Jun-22 20:01N 40°47' E 024°42'0 0.1
2018-Jun-22 19:31N 40°47' E 024°42'0 0.0
2018-Jun-22 19:00N 40°47' E 024°42'1 1.2
2018-Jun-22 18:31N 40°47' E 024°42'4 8.1
2018-Jun-22 18:00N 40°51' E 024°42'1 1.2
2018-Jun-22 17:31N 40°52' E 024°41'5 9.7
2018-Jun-22 17:01N 40°47' E 024°42'0 0.7
2018-Jun-22 16:30N 40°47' E 024°42'4 8.8
2018-Jun-22 16:01N 40°48' E 024°36'2 4.7
2018-Jun-22 15:31N 40°46' E 024°35'0 0.0
2018-Jun-22 15:01N 40°46' E 024°35'0 0.0
2018-Jun-21 10:38N 40°46' E 024°35'1 7.3
2018-Jun-21 10:30N 40°46' E 024°35'3 5.6
2018-Jun-21 10:00N 40°48' E 024°38'2 5.0
2018-Jun-21 09:30N 40°47' E 024°41'1 1.3
2018-Jun-21 09:00N 40°47' E 024°42'4 8.1
2018-Jun-21 08:30N 40°51' E 024°42'0 0.0
2018-Jun-21 08:00N 40°51' E 024°42'2 3.8
2018-Jun-21 07:30N 40°50' E 024°41'3 5.8
2018-Jun-21 07:00N 40°47' E 024°42'1 1.1
2018-Jun-21 06:30N 40°47' E 024°42'4 8.2
2018-Jun-21 06:00N 40°51' E 024°42'0 0.0
2018-Jun-21 05:30N 40°51' E 024°42'2 4.0
2018-Jun-21 05:00N 40°50' E 024°41'3 5.6
2018-Jun-21 04:30N 40°47' E 024°42'0 0.0
2018-Jun-21 04:00N 40°47' E 024°42'0 0.0
2018-Jun-21 03:30N 40°47' E 024°42'0 0.0
2018-Jun-21 03:00N 40°47' E 024°42'3 6.9
2018-Jun-21 02:30N 40°50' E 024°41'2 3.1
2018-Jun-21 02:00N 40°51' E 024°42'0 0.0
2018-Jun-21 01:30N 40°51' E 024°42'0 0.0
2018-Jun-20 19:10N 40°51' E 024°42'0 2.4
2018-Jun-20 19:00N 40°52' E 024°42'5 9.8
2018-Jun-20 18:31N 40°47' E 024°42'0 0.1
2018-Jun-20 18:00N 40°47' E 024°42'1 2.0
2018-Jun-20 17:30N 40°48' E 024°42'4 7.7
2018-Jun-20 17:01N 40°51' E 024°42'0 0.1
2018-Jun-20 16:31N 40°51' E 024°42'2 4.3
2018-Jun-20 16:01N 40°49' E 024°41'3 5.0
2018-Jun-20 15:29N 40°47' E 024°42'1 1.4
2018-Jun-20 15:00N 40°47' E 024°42'4 8.2
2018-Jun-20 14:31N 40°51' E 024°42'0 0.1
2018-Jun-20 14:00N 40°51' E 024°42'2 4.3
2018-Jun-20 13:30N 40°49' E 024°42'3 5.2
2018-Jun-20 13:00N 40°47' E 024°42'0 0.0
2018-Jun-20 12:30N 40°47' E 024°42'0 0.0
2018-Jun-19 20:40N 40°47' E 024°42'1 5.0
2018-Jun-19 20:31N 40°48' E 024°42'4 8.0
2018-Jun-19 20:01N 40°51' E 024°42'1 1.7
2018-Jun-19 19:31N 40°52' E 024°41'5 9.8
2018-Jun-19 19:01N 40°47' E 024°42'0 0.0
2018-Jun-19 18:31N 40°47' E 024°42'1 1.8
2018-Jun-19 18:00N 40°48' E 024°42'4 7.7
2018-Jun-19 17:31N 40°51' E 024°42'0 0.1
2018-Jun-19 17:00N 40°51' E 024°42'2 4.5
2018-Jun-19 16:31N 40°49' E 024°41'3 5.1
2018-Jun-19 16:01N 40°47' E 024°42'0 0.0
2018-Jun-19 15:31N 40°47' E 024°42'0 0.0
2018-Jun-19 15:01N 40°47' E 024°42'1 1.6
2018-Jun-19 14:30N 40°48' E 024°42'4 7.8
2018-Jun-19 14:00N 40°51' E 024°42'0 0.0
2018-Jun-19 13:29N 40°51' E 024°42'2 4.3
2018-Jun-19 13:00N 40°50' E 024°41'3 5.7
2018-Jun-19 12:30N 40°47' E 024°42'0 0.5
2018-Jun-19 12:00N 40°47' E 024°43'0 0.0
2018-Jun-19 11:30N 40°47' E 024°43'0 0.0
2018-Jun-18 15:50N 40°47' E 024°43'1 2.9
2018-Jun-18 15:30N 40°48' E 024°42'4 7.8
2018-Jun-18 15:01N 40°51' E 024°42'0 0.0
2018-Jun-18 14:31N 40°51' E 024°42'2 4.2
2018-Jun-18 14:00N 40°49' E 024°41'3 5.3
2018-Jun-18 13:30N 40°47' E 024°42'1 1.4
2018-Jun-18 13:01N 40°47' E 024°42'4 8.0
2018-Jun-18 12:30N 40°51' E 024°42'0 0.1
2018-Jun-18 12:01N 40°51' E 024°42'2 4.3
2018-Jun-18 11:31N 40°49' E 024°41'3 5.5
2018-Jun-18 11:01N 40°47' E 024°42'0 0.0
2018-Jun-18 10:31N 40°47' E 024°42'0 0.0
2018-Jun-18 10:01N 40°47' E 024°42'0 0.0
2018-Jun-18 09:30N 40°47' E 024°42'0 0.0
2018-Jun-18 09:00N 40°47' E 024°42'0 0.0
2018-Jun-18 08:30N 40°47' E 024°42'0 0.0
2018-Jun-18 08:00N 40°47' E 024°42'0 0.0
2018-Jun-18 07:30N 40°47' E 024°42'0 0.0
2018-Jun-18 07:00N 40°47' E 024°42'1 1.2
2018-Jun-18 06:31N 40°47' E 024°42'6 0.4
2018-Jun-17 17:31N 40°46' E 024°35'0 0.0
2018-Jun-17 17:30N 40°46' E 024°35'4 8.2
2018-Jun-17 17:00N 40°48' E 024°39'2 4.8
2018-Jun-17 16:30N 40°48' E 024°42'4 7.7
2018-Jun-17 16:00N 40°51' E 024°42'0 0.0
2018-Jun-17 15:30N 40°51' E 024°42'2 4.1
2018-Jun-17 15:00N 40°49' E 024°41'3 5.5
2018-Jun-17 14:30N 40°47' E 024°42'1 1.2
2018-Jun-17 14:00N 40°47' E 024°42'4 8.1
2018-Jun-17 13:30N 40°51' E 024°42'0 0.0
2018-Jun-17 13:00N 40°51' E 024°42'2 4.8
2018-Jun-17 12:30N 40°49' E 024°41'2 4.7
2018-Jun-17 12:00N 40°47' E 024°42'0 0.0
2018-Jun-17 11:30N 40°47' E 024°42'0 0.0
2018-Jun-17 10:58N 40°47' E 024°42'0 0.0
2018-Jun-17 10:30N 40°47' E 024°42'0 0.0
2018-Jun-17 10:00N 40°47' E 024°42'1 1.1
2018-Jun-17 09:30N 40°47' E 024°42'4 8.3
2018-Jun-17 09:00N 40°51' E 024°42'0 0.1
2018-Jun-17 08:30N 40°51' E 024°42'3 6.9
2018-Jun-17 08:00N 40°48' E 024°42'1 2.6
2018-Jun-17 07:30N 40°47' E 024°42'0 0.0
2018-Jun-17 07:00N 40°47' E 024°42'0 0.0
2018-Jun-16 19:43N 40°47' E 024°42'1 5.7
2018-Jun-16 19:30N 40°48' E 024°42'4 7.0
2018-Jun-16 19:00N 40°51' E 024°42'0 0.0
2018-Jun-16 18:30N 40°51' E 024°42'2 4.4
2018-Jun-16 18:00N 40°49' E 024°41'3 5.2
2018-Jun-16 17:30N 40°47' E 024°42'1 1.8
2018-Jun-16 17:00N 40°48' E 024°42'4 7.7
2018-Jun-16 16:30N 40°51' E 024°42'0 0.1
2018-Jun-16 16:00N 40°51' E 024°42'2 4.1
2018-Jun-16 15:30N 40°49' E 024°41'3 5.5
2018-Jun-16 15:00N 40°47' E 024°42'0 0.0
2018-Jun-16 14:30N 40°47' E 024°42'0 0.0
2018-Jun-16 14:00N 40°47' E 024°42'1 1.5
2018-Jun-16 13:30N 40°47' E 024°42'4 8.0
2018-Jun-16 13:00N 40°51' E 024°42'0 0.1
2018-Jun-16 12:30N 40°51' E 024°42'2 4.3
2018-Jun-16 12:00N 40°49' E 024°41'3 5.2
2018-Jun-16 11:30N 40°47' E 024°42'2 3.9
2018-Jun-16 11:00N 40°48' E 024°40'4 8.4
2018-Jun-16 10:30N 40°46' E 024°35'1 1.7
2018-Jun-16 10:00N 40°46' E 024°35'0 0.0
2018-Jun-15 16:37N 40°46' E 024°35'1 6.4
2018-Jun-15 16:30N 40°46' E 024°35'4 8.1
2018-Jun-15 16:00N 40°48' E 024°40'2 3.3
2018-Jun-15 15:30N 40°47' E 024°42'4 8.1
2018-Jun-15 15:00N 40°51' E 024°42'0 0.0
2018-Jun-15 14:30N 40°51' E 024°42'2 4.5
2018-Jun-15 14:00N 40°49' E 024°41'3 5.1
2018-Jun-15 13:30N 40°47' E 024°42'1 2.6
2018-Jun-15 13:00N 40°48' E 024°41'4 7.3
2018-Jun-15 12:30N 40°51' E 024°42'0 0.0
2018-Jun-15 12:00N 40°51' E 024°42'2 4.7
2018-Jun-15 11:30N 40°49' E 024°42'2 4.8
2018-Jun-15 11:00N 40°47' E 024°42'0 0.7
2018-Jun-15 10:30N 40°47' E 024°43'0 0.0
2018-Jun-15 10:00N 40°47' E 024°43'0 0.0
2018-Jun-15 09:30N 40°47' E 024°43'0 0.0
2018-Jun-15 09:00N 40°47' E 024°43'0 0.0
2018-Jun-15 08:30N 40°47' E 024°43'0 0.0
2018-Jun-15 08:00N 40°47' E 024°43'0 0.0
2018-Jun-15 07:30N 40°47' E 024°43'0 0.0
2018-Jun-15 07:00N 40°47' E 024°43'0 0.0
2018-Jun-15 06:30N 40°47' E 024°43'0 0.0
2018-Jun-15 06:00N 40°47' E 024°43'1 1.4
2018-Jun-15 05:30N 40°47' E 024°42'4 8.4
2018-Jun-15 05:00N 40°51' E 024°42'0 0.1
2018-Jun-15 04:30N 40°51' E 024°42'2 4.2
2018-Jun-15 04:00N 40°49' E 024°41'2 4.6
2018-Jun-15 03:30N 40°47' E 024°42'4 8.4
2018-Jun-15 03:00N 40°48' E 024°37'3 5.2
2018-Jun-15 02:30N 40°46' E 024°35'  
Track history (hours):
 
Tides and Currents Weather Stations Pressure Air Temp Water Temp Dewpoint Dewpoint Depression Visibility Wind Speed Wind Dir Waves Ship Positions

Thassos III

Last reported at 2018-Jun-24 19:48 UTC. Time now 2018-Jun-24 22:07 UTC.
Position N 40°47' E 024°42'.

Length 100 m; draft 2.1 m.

Type: Passenger vessel. MMSI: 239371500.

Date/timePositionNaut miles runAvg speedWind from/ knotsBaromVisibWave heightAir tempDewpointWater temp
2018-Jun-24 19:48N 40°47' E 024°42'2 6.3
2018-Jun-24 19:30N 40°49' E 024°42'3 5.7
2018-Jun-24 19:00N 40°51' E 024°42'0 0.1
2018-Jun-24 18:30N 40°51' E 024°42'3 5.2
2018-Jun-24 18:00N 40°49' E 024°41'2 4.4
2018-Jun-24 17:30N 40°47' E 024°42'1 2.8
2018-Jun-24 17:00N 40°48' E 024°41'3 6.8
2018-Jun-24 16:30N 40°51' E 024°42'0 0.0
2018-Jun-24 16:00N 40°51' E 024°42'2 4.3
2018-Jun-24 15:30N 40°49' E 024°41'3 5.3
2018-Jun-24 15:00N 40°47' E 024°42'0 0.0
2018-Jun-24 14:30N 40°47' E 024°42'1 2.0
2018-Jun-24 14:00N 40°48' E 024°42'4 7.5
2018-Jun-24 13:30N 40°51' E 024°42'0 0.1
2018-Jun-24 13:00N 40°51' E 024°42'2 4.2
2018-Jun-24 12:30N 40°49' E 024°42'2 3.9
2018-Jun-24 12:00N 40°47' E 024°41'5 9.2
2018-Jun-24 11:30N 40°49' E 024°35'4 8.9
2018-Jun-24 11:00N 40°49' E 024°29'4 9.0
2018-Jun-24 10:30N 40°50' E 024°24'4 7.4
2018-Jun-24 10:00N 40°51' E 024°19'0 0.1
2018-Jun-24 09:30N 40°51' E 024°19'0 0.0
2018-Jun-23 12:55N 40°51' E 024°19'3 8.0
2018-Jun-23 12:30N 40°50' E 024°23'510.5
2018-Jun-23 12:00N 40°49' E 024°30'510.6
2018-Jun-23 11:30N 40°48' E 024°37'4 8.7
2018-Jun-23 11:00N 40°47' E 024°42'1 2.1
2018-Jun-23 10:29N 40°48' E 024°42'4 7.6
2018-Jun-23 10:00N 40°51' E 024°42'0 0.0
2018-Jun-23 09:30N 40°51' E 024°42'2 3.9
2018-Jun-23 09:00N 40°50' E 024°41'3 5.8
2018-Jun-23 08:30N 40°47' E 024°42'0 0.0
2018-Jun-23 08:00N 40°47' E 024°42'0 0.0
2018-Jun-23 07:30N 40°47' E 024°42'0 0.9
2018-Jun-23 07:00N 40°47' E 024°42'4 8.4
2018-Jun-23 06:30N 40°51' E 024°42'0 0.0
2018-Jun-23 06:00N 40°51' E 024°42'2 4.3
2018-Jun-23 05:30N 40°49' E 024°41'3 5.4
2018-Jun-23 05:00N 40°47' E 024°42'0 0.0
2018-Jun-23 04:30N 40°47' E 024°42'0 0.9
2018-Jun-23 04:00N 40°47' E 024°42'4 8.5
2018-Jun-23 03:30N 40°51' E 024°42'0 0.0
2018-Jun-22 20:38N 40°51' E 024°42'1 7.4
2018-Jun-22 20:30N 40°52' E 024°41'5 9.8
2018-Jun-22 20:01N 40°47' E 024°42'0 0.1
2018-Jun-22 19:31N 40°47' E 024°42'0 0.0
2018-Jun-22 19:00N 40°47' E 024°42'1 1.2
2018-Jun-22 18:31N 40°47' E 024°42'4 8.1
2018-Jun-22 18:00N 40°51' E 024°42'1 1.2
2018-Jun-22 17:31N 40°52' E 024°41'5 9.7
2018-Jun-22 17:01N 40°47' E 024°42'0 0.7
2018-Jun-22 16:30N 40°47' E 024°42'4 8.8
2018-Jun-22 16:01N 40°48' E 024°36'2 4.7
2018-Jun-22 15:31N 40°46' E 024°35'0 0.0
2018-Jun-22 15:01N 40°46' E 024°35'0 0.0
2018-Jun-21 10:38N 40°46' E 024°35'1 7.3
2018-Jun-21 10:30N 40°46' E 024°35'3 5.6
2018-Jun-21 10:00N 40°48' E 024°38'2 5.0
2018-Jun-21 09:30N 40°47' E 024°41'1 1.3
2018-Jun-21 09:00N 40°47' E 024°42'4 8.1
2018-Jun-21 08:30N 40°51' E 024°42'0 0.0
2018-Jun-21 08:00N 40°51' E 024°42'2 3.8
2018-Jun-21 07:30N 40°50' E 024°41'3 5.8
2018-Jun-21 07:00N 40°47' E 024°42'1 1.1
2018-Jun-21 06:30N 40°47' E 024°42'4 8.2
2018-Jun-21 06:00N 40°51' E 024°42'0 0.0
2018-Jun-21 05:30N 40°51' E 024°42'2 4.0
2018-Jun-21 05:00N 40°50' E 024°41'3 5.6
2018-Jun-21 04:30N 40°47' E 024°42'0 0.0
2018-Jun-21 04:00N 40°47' E 024°42'0 0.0
2018-Jun-21 03:30N 40°47' E 024°42'0 0.0
2018-Jun-21 03:00N 40°47' E 024°42'3 6.9
2018-Jun-21 02:30N 40°50' E 024°41'2 3.1
2018-Jun-21 02:00N 40°51' E 024°42'0 0.0
2018-Jun-21 01:30N 40°51' E 024°42'0 0.0
2018-Jun-20 19:10N 40°51' E 024°42'0 2.4
2018-Jun-20 19:00N 40°52' E 024°42'5 9.8
2018-Jun-20 18:31N 40°47' E 024°42'0 0.1
2018-Jun-20 18:00N 40°47' E 024°42'1 2.0
2018-Jun-20 17:30N 40°48' E 024°42'4 7.7
2018-Jun-20 17:01N 40°51' E 024°42'0 0.1
2018-Jun-20 16:31N 40°51' E 024°42'2 4.3
2018-Jun-20 16:01N 40°49' E 024°41'3 5.0
2018-Jun-20 15:29N 40°47' E 024°42'1 1.4
2018-Jun-20 15:00N 40°47' E 024°42'4 8.2
2018-Jun-20 14:31N 40°51' E 024°42'0 0.1
2018-Jun-20 14:00N 40°51' E 024°42'2 4.3
2018-Jun-20 13:30N 40°49' E 024°42'3 5.2
2018-Jun-20 13:00N 40°47' E 024°42'0 0.0
2018-Jun-20 12:30N 40°47' E 024°42'0 0.0
2018-Jun-19 20:40N 40°47' E 024°42'1 5.0
2018-Jun-19 20:31N 40°48' E 024°42'4 8.0
2018-Jun-19 20:01N 40°51' E 024°42'1 1.7
2018-Jun-19 19:31N 40°52' E 024°41'5 9.8
2018-Jun-19 19:01N 40°47' E 024°42'0 0.0
2018-Jun-19 18:31N 40°47' E 024°42'1 1.8
2018-Jun-19 18:00N 40°48' E 024°42'4 7.7
2018-Jun-19 17:31N 40°51' E 024°42'0 0.1
2018-Jun-19 17:00N 40°51' E 024°42'2 4.5
2018-Jun-19 16:31N 40°49' E 024°41'3 5.1
2018-Jun-19 16:01N 40°47' E 024°42'0 0.0
2018-Jun-19 15:31N 40°47' E 024°42'0 0.0
2018-Jun-19 15:01N 40°47' E 024°42'1 1.6
2018-Jun-19 14:30N 40°48' E 024°42'4 7.8
2018-Jun-19 14:00N 40°51' E 024°42'0 0.0
2018-Jun-19 13:29N 40°51' E 024°42'2 4.3
2018-Jun-19 13:00N 40°50' E 024°41'3 5.7
2018-Jun-19 12:30N 40°47' E 024°42'0 0.5
2018-Jun-19 12:00N 40°47' E 024°43'0 0.0
2018-Jun-19 11:30N 40°47' E 024°43'0 0.0
2018-Jun-18 15:50N 40°47' E 024°43'1 2.9
2018-Jun-18 15:30N 40°48' E 024°42'4 7.8
2018-Jun-18 15:01N 40°51' E 024°42'0 0.0
2018-Jun-18 14:31N 40°51' E 024°42'2 4.2
2018-Jun-18 14:00N 40°49' E 024°41'3 5.3
2018-Jun-18 13:30N 40°47' E 024°42'1 1.4
2018-Jun-18 13:01N 40°47' E 024°42'4 8.0
2018-Jun-18 12:30N 40°51' E 024°42'0 0.1
2018-Jun-18 12:01N 40°51' E 024°42'2 4.3
2018-Jun-18 11:31N 40°49' E 024°41'3 5.5
2018-Jun-18 11:01N 40°47' E 024°42'0 0.0
2018-Jun-18 10:31N 40°47' E 024°42'0 0.0
2018-Jun-18 10:01N 40°47' E 024°42'0 0.0
2018-Jun-18 09:30N 40°47' E 024°42'0 0.0
2018-Jun-18 09:00N 40°47' E 024°42'0 0.0
2018-Jun-18 08:30N 40°47' E 024°42'0 0.0
2018-Jun-18 08:00N 40°47' E 024°42'0 0.0
2018-Jun-18 07:30N 40°47' E 024°42'0 0.0
2018-Jun-18 07:00N 40°47' E 024°42'1 1.2
2018-Jun-18 06:31N 40°47' E 024°42'6 0.4
2018-Jun-17 17:31N 40°46' E 024°35'0 0.0
2018-Jun-17 17:30N 40°46' E 024°35'4 8.2
2018-Jun-17 17:00N 40°48' E 024°39'2 4.8
2018-Jun-17 16:30N 40°48' E 024°42'4 7.7
2018-Jun-17 16:00N 40°51' E 024°42'0 0.0
2018-Jun-17 15:30N 40°51' E 024°42'2 4.1
2018-Jun-17 15:00N 40°49' E 024°41'3 5.5
2018-Jun-17 14:30N 40°47' E 024°42'1 1.2
2018-Jun-17 14:00N 40°47' E 024°42'4 8.1
2018-Jun-17 13:30N 40°51' E 024°42'0 0.0
2018-Jun-17 13:00N 40°51' E 024°42'2 4.8
2018-Jun-17 12:30N 40°49' E 024°41'2 4.7
2018-Jun-17 12:00N 40°47' E 024°42'0 0.0
2018-Jun-17 11:30N 40°47' E 024°42'0 0.0
2018-Jun-17 10:58N 40°47' E 024°42'0 0.0
2018-Jun-17 10:30N 40°47' E 024°42'0 0.0
2018-Jun-17 10:00N 40°47' E 024°42'1 1.1
2018-Jun-17 09:30N 40°47' E 024°42'4 8.3
2018-Jun-17 09:00N 40°51' E 024°42'0 0.1
2018-Jun-17 08:30N 40°51' E 024°42'3 6.9
2018-Jun-17 08:00N 40°48' E 024°42'1 2.6
2018-Jun-17 07:30N 40°47' E 024°42'0 0.0
2018-Jun-17 07:00N 40°47' E 024°42'0 0.0
2018-Jun-16 19:43N 40°47' E 024°42'1 5.7
2018-Jun-16 19:30N 40°48' E 024°42'4 7.0
2018-Jun-16 19:00N 40°51' E 024°42'0 0.0
2018-Jun-16 18:30N 40°51' E 024°42'2 4.4
2018-Jun-16 18:00N 40°49' E 024°41'3 5.2
2018-Jun-16 17:30N 40°47' E 024°42'1 1.8
2018-Jun-16 17:00N 40°48' E 024°42'4 7.7
2018-Jun-16 16:30N 40°51' E 024°42'0 0.1
2018-Jun-16 16:00N 40°51' E 024°42'2 4.1
2018-Jun-16 15:30N 40°49' E 024°41'3 5.5
2018-Jun-16 15:00N 40°47' E 024°42'0 0.0
2018-Jun-16 14:30N 40°47' E 024°42'0 0.0
2018-Jun-16 14:00N 40°47' E 024°42'1 1.5
2018-Jun-16 13:30N 40°47' E 024°42'4 8.0
2018-Jun-16 13:00N 40°51' E 024°42'0 0.1
2018-Jun-16 12:30N 40°51' E 024°42'2 4.3
2018-Jun-16 12:00N 40°49' E 024°41'3 5.2
2018-Jun-16 11:30N 40°47' E 024°42'2 3.9
2018-Jun-16 11:00N 40°48' E 024°40'4 8.4
2018-Jun-16 10:30N 40°46' E 024°35'1 1.7
2018-Jun-16 10:00N 40°46' E 024°35'0 0.0
2018-Jun-15 16:37N 40°46' E 024°35'1 6.4
2018-Jun-15 16:30N 40°46' E 024°35'4 8.1
2018-Jun-15 16:00N 40°48' E 024°40'2 3.3
2018-Jun-15 15:30N 40°47' E 024°42'4 8.1
2018-Jun-15 15:00N 40°51' E 024°42'0 0.0
2018-Jun-15 14:30N 40°51' E 024°42'2 4.5
2018-Jun-15 14:00N 40°49' E 024°41'3 5.1
2018-Jun-15 13:30N 40°47' E 024°42'1 2.6
2018-Jun-15 13:00N 40°48' E 024°41'4 7.3
2018-Jun-15 12:30N 40°51' E 024°42'0 0.0
2018-Jun-15 12:00N 40°51' E 024°42'2 4.7
2018-Jun-15 11:30N 40°49' E 024°42'2 4.8
2018-Jun-15 11:00N 40°47' E 024°42'0 0.7
2018-Jun-15 10:30N 40°47' E 024°43'0 0.0
2018-Jun-15 10:00N 40°47' E 024°43'0 0.0
2018-Jun-15 09:30N 40°47' E 024°43'0 0.0
2018-Jun-15 09:00N 40°47' E 024°43'0 0.0
2018-Jun-15 08:30N 40°47' E 024°43'0 0.0
2018-Jun-15 08:00N 40°47' E 024°43'0 0.0
2018-Jun-15 07:30N 40°47' E 024°43'0 0.0
2018-Jun-15 07:00N 40°47' E 024°43'0 0.0
2018-Jun-15 06:30N 40°47' E 024°43'0 0.0
2018-Jun-15 06:00N 40°47' E 024°43'1 1.4
2018-Jun-15 05:30N 40°47' E 024°42'4 8.4
2018-Jun-15 05:00N 40°51' E 024°42'0 0.1
2018-Jun-15 04:30N 40°51' E 024°42'2 4.2
2018-Jun-15 04:00N 40°49' E 024°41'2 4.6
2018-Jun-15 03:30N 40°47' E 024°42'4 8.4
2018-Jun-15 03:00N 40°48' E 024°37'3 5.2
2018-Jun-15 02:30N 40°46' E 024°35'  

Dump ship's entire track history